createdAt,value
2022-07-30T00:03:00.383Z,53.10
2022-07-30T00:08:06.239Z,53.10
2022-07-30T00:13:09.782Z,52.80
2022-07-30T00:18:17.866Z,52.90
2022-07-30T00:23:22.902Z,52.90
2022-07-30T00:28:26.481Z,53.20
2022-07-30T00:33:29.998Z,52.90
2022-07-30T00:38:35.212Z,52.90
2022-07-30T00:43:38.898Z,52.80
2022-07-30T00:48:42.825Z,52.70
2022-07-30T00:53:48.007Z,52.70
2022-07-30T00:58:51.742Z,52.70
2022-07-30T01:03:55.307Z,52.60
2022-07-30T01:09:00.261Z,52.50
2022-07-30T01:14:05.452Z,52.50
2022-07-30T01:19:34.106Z,52.50
2022-07-30T01:24:45.141Z,52.30
2022-07-30T01:29:52.212Z,52.20
2022-07-30T01:34:57.383Z,52.10
2022-07-30T01:40:01.406Z,52.00
2022-07-30T01:45:09.074Z,51.80
2022-07-30T01:50:15.532Z,52.00
2022-07-30T01:55:26.265Z,51.80
2022-07-30T02:00:36.087Z,51.90
2022-07-30T02:05:43.204Z,51.70
2022-07-30T02:10:50.683Z,51.60
2022-07-30T02:16:02.279Z,51.40
2022-07-30T02:21:11.575Z,51.30
2022-07-30T02:26:23.020Z,51.10
2022-07-30T02:31:31.060Z,51.20
2022-07-30T02:36:35.349Z,51.00
2022-07-30T02:41:44.563Z,51.20
2022-07-30T02:46:52.839Z,50.80
2022-07-30T02:52:12.242Z,50.90
2022-07-30T02:57:17.163Z,50.90
2022-07-30T03:02:29.357Z,50.80
2022-07-30T03:07:34.725Z,50.70
2022-07-30T03:12:41.306Z,50.70
2022-07-30T03:17:55.595Z,50.60
2022-07-30T03:23:03.074Z,50.60
2022-07-30T03:28:07.860Z,50.30
2022-07-30T03:33:13.940Z,50.40
2022-07-30T03:38:21.417Z,50.40
2022-07-30T03:43:32.809Z,50.20
2022-07-30T03:48:41.195Z,50.10
2022-07-30T03:53:46.983Z,50.10
2022-07-30T03:59:09.675Z,50.20
2022-07-30T04:04:18.013Z,50.30
2022-07-30T04:09:21.726Z,50.00
2022-07-30T04:14:25.798Z,50.20
2022-07-30T04:19:41.477Z,50.10
2022-07-30T04:24:47.709Z,50.10
2022-07-30T04:29:51.569Z,50.20
2022-07-30T04:34:57.895Z,50.10
2022-07-30T04:40:39.932Z,50.30
2022-07-30T04:45:45.415Z,50.50
2022-07-30T04:50:54.998Z,50.60
2022-07-30T04:56:02.554Z,51.00
2022-07-30T05:01:08.088Z,51.00
2022-07-30T05:06:14.439Z,51.20
2022-07-30T05:11:18.389Z,51.20
2022-07-30T05:16:22.412Z,51.40
2022-07-30T05:21:28.684Z,51.30
2022-07-30T05:26:33.028Z,51.60
2022-07-30T05:31:38.057Z,51.70
2022-07-30T05:36:45.505Z,51.90
2022-07-30T05:41:51.689Z,51.80
2022-07-30T05:47:10.798Z,52.00
2022-07-30T05:52:17.480Z,52.30
2022-07-30T05:57:22.055Z,52.50
2022-07-30T06:02:25.849Z,52.90
2022-07-30T06:07:49.229Z,53.10
2022-07-30T06:12:55.992Z,53.40
2022-07-30T06:18:02.186Z,53.70
2022-07-30T06:23:28.019Z,54.00
2022-07-30T06:28:54.547Z,54.10
2022-07-30T06:34:07.097Z,54.40
2022-07-30T06:39:56.207Z,54.60
2022-07-30T06:45:03.736Z,54.60
2022-07-30T06:50:28.047Z,54.80
2022-07-30T06:55:33.738Z,54.90
2022-07-30T07:00:38.325Z,55.20
2022-07-30T07:05:48.078Z,55.20
2022-07-30T07:10:53.227Z,55.30
2022-07-30T07:16:07.630Z,55.40
2022-07-30T07:21:13.103Z,55.50
2022-07-30T07:26:18.436Z,55.70
2022-07-30T07:32:05.902Z,55.70
2022-07-30T07:36:46.949Z,55.70
2022-07-30T07:41:51.986Z,55.60
2022-07-30T07:46:59.900Z,55.70
2022-07-30T07:52:09.147Z,55.70
2022-07-30T07:57:15.253Z,55.90
2022-07-30T08:02:19.733Z,55.90
2022-07-30T08:07:45.587Z,55.70
2022-07-30T08:13:48.126Z,55.80
2022-07-30T08:18:59.532Z,55.70
2022-07-30T08:24:20.083Z,55.80
2022-07-30T08:29:25.172Z,55.90
2022-07-30T08:34:29.378Z,55.60
2022-07-30T08:39:34.484Z,55.50
2022-07-30T08:44:40.524Z,55.30
2022-07-30T08:49:45.074Z,55.20
2022-07-30T08:54:49.333Z,54.90
2022-07-30T09:00:00.027Z,54.90
2022-07-30T09:05:08.314Z,54.70
2022-07-30T09:10:12.700Z,54.40
2022-07-30T09:15:21.110Z,54.30
2022-07-30T09:20:27.986Z,54.00
2022-07-30T09:25:38.897Z,54.20
2022-07-30T09:31:02.563Z,54.60
2022-07-30T09:36:25.426Z,54.20
2022-07-30T09:41:49.392Z,54.30
2022-07-30T09:46:55.207Z,54.60
2022-07-30T09:52:05.135Z,54.50
2022-07-30T09:57:25.475Z,54.20
2022-07-30T10:02:34.649Z,54.00
2022-07-30T10:08:04.398Z,53.20
2022-07-30T10:13:20.580Z,53.10
2022-07-30T10:18:28.584Z,52.80
2022-07-30T10:24:08.314Z,52.30
2022-07-30T10:29:33.865Z,52.50
2022-07-30T10:34:42.660Z,52.60
2022-07-30T10:39:56.339Z,53.10
2022-07-30T10:45:35.790Z,52.70
2022-07-30T10:50:57.210Z,52.30
2022-07-30T10:56:16.314Z,52.10
2022-07-30T11:01:20.222Z,52.30
2022-07-30T11:06:29.552Z,52.40
2022-07-30T11:12:02.285Z,52.40
2022-07-30T11:17:09.963Z,53.00
2022-07-30T11:22:31.725Z,53.30
2022-07-30T11:27:41.110Z,53.20
2022-07-30T11:32:48.374Z,52.90
2022-07-30T11:38:07.199Z,53.00
2022-07-30T11:43:34.960Z,52.70
2022-07-30T11:48:43.024Z,52.70
2022-07-30T11:54:02.511Z,52.70
2022-07-30T11:59:09.423Z,52.80
2022-07-30T12:04:13.075Z,53.00
2022-07-30T12:09:29.154Z,52.90
2022-07-30T12:14:39.420Z,52.90
2022-07-30T12:19:48.292Z,52.50
2022-07-30T12:24:53.755Z,51.90
2022-07-30T12:29:57.353Z,52.50
2022-07-30T12:35:00.960Z,53.00
2022-07-30T12:40:14.938Z,52.30
2022-07-30T12:45:30.197Z,52.50
2022-07-30T12:51:07.437Z,52.80
2022-07-30T12:56:18.716Z,52.40
2022-07-30T13:01:41.925Z,51.90
2022-07-30T13:06:45.816Z,50.70
2022-07-30T13:11:51.329Z,51.50
2022-07-30T13:16:58.397Z,51.20
2022-07-30T13:22:01.939Z,51.00
2022-07-30T13:27:07.326Z,50.90
2022-07-30T13:32:11.118Z,50.70
2022-07-30T13:37:14.636Z,50.60
2022-07-30T13:42:19.858Z,49.70
2022-07-30T13:47:25.231Z,50.40
2022-07-30T13:52:28.920Z,50.00
2022-07-30T13:57:34.142Z,49.70
2022-07-30T14:02:37.881Z,49.90
2022-07-30T14:07:42.147Z,49.60
2022-07-30T14:12:47.069Z,49.80
2022-07-30T14:17:56.074Z,49.00
2022-07-30T14:23:00.565Z,49.70
2022-07-30T14:28:06.148Z,49.70
2022-07-30T14:33:09.807Z,49.70
2022-07-30T14:38:13.461Z,49.30
2022-07-30T14:43:19.695Z,49.60
2022-07-30T14:48:23.335Z,49.70
2022-07-30T14:53:26.864Z,48.90
2022-07-30T14:58:31.853Z,48.60
2022-07-30T15:03:36.196Z,48.70
2022-07-30T15:08:39.972Z,48.20
2022-07-30T15:13:50.541Z,48.70
2022-07-30T15:18:54.428Z,48.60
2022-07-30T15:23:57.942Z,48.90
2022-07-30T15:29:04.792Z,49.70
2022-07-30T15:34:10.879Z,49.90
2022-07-30T15:39:15.483Z,49.80
2022-07-30T15:44:20.748Z,50.00
2022-07-30T15:49:24.978Z,50.50
2022-07-30T15:54:29.583Z,51.00
2022-07-30T15:59:34.615Z,51.70
2022-07-30T16:04:38.786Z,51.00
2022-07-30T16:09:44.803Z,50.00
2022-07-30T16:14:50.969Z,49.70
2022-07-30T16:19:54.779Z,49.60
2022-07-30T16:24:58.545Z,49.90
2022-07-30T16:30:03.550Z,49.80
2022-07-30T16:35:13.105Z,50.00
2022-07-30T16:40:17.050Z,50.30
2022-07-30T16:45:22.156Z,50.40
2022-07-30T16:50:25.828Z,50.60
2022-07-30T16:55:29.610Z,50.60
2022-07-30T17:00:34.559Z,50.60
2022-07-30T17:05:38.258Z,50.70
2022-07-30T17:10:49.156Z,50.80
2022-07-30T17:15:54.934Z,50.90
2022-07-30T17:20:58.687Z,50.80
2022-07-30T17:26:02.304Z,50.80
2022-07-30T17:31:07.511Z,50.80
2022-07-30T17:36:12.853Z,50.70
2022-07-30T17:41:16.453Z,50.50
2022-07-30T17:46:21.473Z,50.50
2022-07-30T17:51:25.045Z,50.20
2022-07-30T17:56:28.629Z,50.20
2022-07-30T18:01:34.377Z,50.10
2022-07-30T18:06:37.968Z,50.10
2022-07-30T18:11:41.605Z,50.10
2022-07-30T18:16:46.943Z,50.10
2022-07-30T18:21:50.571Z,50.00
2022-07-30T18:26:55.327Z,50.10
2022-07-30T18:32:00.594Z,50.20
2022-07-30T18:37:04.704Z,50.30
2022-07-30T18:42:09.031Z,50.50
2022-07-30T18:47:13.975Z,50.60
2022-07-30T18:52:18.316Z,50.90
2022-07-30T18:57:21.899Z,51.10
2022-07-30T19:02:26.890Z,51.40
2022-07-30T19:07:30.377Z,51.60
2022-07-30T19:12:54.687Z,51.60
2022-07-30T19:17:59.959Z,51.70
2022-07-30T19:23:06.103Z,51.70
2022-07-30T19:28:11.252Z,51.70
2022-07-30T19:33:16.501Z,51.70
2022-07-30T19:38:21.802Z,51.80
2022-07-30T19:47:15.873Z,51.50
2022-07-30T19:55:17.125Z,53.90
2022-07-30T20:00:35.778Z,56.30
2022-07-30T20:05:54.952Z,56.70
2022-07-30T20:11:07.437Z,56.60
2022-07-30T20:16:12.237Z,56.00
2022-07-30T20:21:16.729Z,56.10
2022-07-30T20:26:25.058Z,55.30
2022-07-30T20:31:32.653Z,55.30
2022-07-30T20:36:38.585Z,55.30
2022-07-30T20:41:45.046Z,55.10
2022-07-30T20:46:48.615Z,55.00
2022-07-30T20:51:53.829Z,54.70
2022-07-30T20:56:59.072Z,54.70
2022-07-30T21:02:03.195Z,54.60
2022-07-30T21:07:07.015Z,54.50
2022-07-30T21:17:36.246Z,54.20
2022-07-30T21:22:41.869Z,54.10
2022-07-30T21:27:47.379Z,54.10
2022-07-30T21:32:51.185Z,53.60
2022-07-30T21:37:54.725Z,53.70
2022-07-30T21:43:00.987Z,53.80
2022-07-30T21:48:05.237Z,53.60
2022-07-30T21:53:08.938Z,53.50
2022-07-30T21:58:25.714Z,53.40
2022-07-30T22:04:03.113Z,53.30
2022-07-30T22:08:53.987Z,53.40
2022-07-30T22:13:59.093Z,53.50
2022-07-30T22:19:05.002Z,54.10
2022-07-30T22:24:09.552Z,54.60
2022-07-30T22:29:38.017Z,54.90
2022-07-30T22:34:41.782Z,55.20
2022-07-30T22:39:50.565Z,55.40
2022-07-30T22:44:57.259Z,55.70
2022-07-30T22:50:00.904Z,56.00
2022-07-30T22:55:09.137Z,56.00
2022-07-30T23:00:27.774Z,56.10
2022-07-30T23:05:35.209Z,56.00
2022-07-30T23:10:39.026Z,56.10
2022-07-30T23:12:26.912Z,54.30
2022-07-30T23:15:44.775Z,56.10
2022-07-30T23:20:48.424Z,56.10
2022-07-30T23:25:51.994Z,56.10
2022-07-30T23:30:57.054Z,56.10
2022-07-30T23:36:01.263Z,56.50
2022-07-30T23:41:06.781Z,56.60
2022-07-30T23:46:13.939Z,56.60
2022-07-30T23:51:17.375Z,56.70
2022-07-30T23:56:21.151Z,56.70
